Time;durP1;ratioP1;P1;durP2;ratioP2;P2;SDS_P1;SDS_P2;PMS_P1;PMS_P2;Temp;Humidity;BMP_temperature;BMP_pressure;BME280_temperature;BME280_humidity;BME280_pressure;Samples;Min_cycle;Max_cycle;Signal;HPM_P1;HPM_P2
2022/12/01 00:00:34;;;;;;;56.20;35.73;;;;;;;;;;5000318;28;20287;-70
2022/12/01 00:02:59;;;;;;;55.40;35.77;;;;;;;;;;5016417;28;20236;-70
2022/12/01 00:05:24;;;;;;;67.03;39.47;;;;;;;;;;5017897;28;20729;-70
2022/12/01 00:07:50;;;;;;;58.10;36.23;;;;;;;;;;5015939;28;20212;-70
2022/12/01 00:10:24;;;;;;;62.23;37.00;;;;;;;;;;5017863;28;20192;-70
2022/12/01 00:12:51;;;;;;;57.63;36.00;;;;;;;;;;5003285;28;20539;-70
2022/12/01 00:15:16;;;;;;;62.30;37.07;;;;;;;;;;5018406;28;20418;-70
2022/12/01 00:17:44;;;;;;;55.60;35.10;;;;;;;;;;5018004;28;20426;-70
2022/12/01 00:20:10;;;;;;;62.30;37.90;;;;;;;;;;5019017;28;20216;-70
2022/12/01 00:22:35;;;;;;;65.90;41.43;;;;;;;;;;5019811;28;20432;-70
2022/12/01 00:25:00;;;;;;;62.30;37.33;;;;;;;;;;5016685;28;20463;-70
2022/12/01 00:27:26;;;;;;;63.47;39.53;;;;;;;;;;5003161;28;20288;-70
2022/12/01 00:29:51;;;;;;;63.27;37.10;;;;;;;;;;5002522;28;20212;-70
2022/12/01 00:32:16;;;;;;;66.93;38.03;;;;;;;;;;5014926;28;20588;-70
2022/12/01 00:34:42;;;;;;;64.90;38.40;;;;;;;;;;5015187;28;20209;-70
2022/12/01 00:37:07;;;;;;;66.33;40.63;;;;;;;;;;5001420;28;20177;-70
2022/12/01 00:39:35;;;;;;;61.30;37.23;;;;;;;;;;5019994;28;20278;-70
2022/12/01 00:42:00;;;;;;;63.20;38.20;;;;;;;;;;5018495;28;20188;-70
2022/12/01 00:44:25;;;;;;;62.30;39.30;;;;;;;;;;5019135;28;20420;-70
2022/12/01 00:46:50;;;;;;;60.13;39.03;;;;;;;;;;5019244;28;20180;-70
2022/12/01 00:49:16;;;;;;;68.33;40.13;;;;;;;;;;5000051;28;20206;-70
2022/12/01 00:51:41;;;;;;;64.73;39.50;;;;;;;;;;5018874;28;20678;-70
2022/12/01 00:54:06;;;;;;;62.20;38.97;;;;;;;;;;5016792;28;20273;-70
2022/12/01 00:56:32;;;;;;;70.63;40.10;;;;;;;;;;5019658;28;20204;-70
2022/12/01 00:58:57;;;;;;;68.37;40.83;;;;;;;;;;5019008;28;20328;-70
2022/12/01 01:01:22;;;;;;;67.07;39.57;;;;;;;;;;5017048;28;20176;-70
2022/12/01 01:03:48;;;;;;;66.37;41.30;;;;;;;;;;5017080;28;20196;-70
2022/12/01 01:06:13;;;;;;;63.30;38.63;;;;;;;;;;4997941;28;20655;-70
2022/12/01 01:08:39;;;;;;;65.77;39.97;;;;;;;;;;5014600;28;20258;-70
2022/12/01 01:11:05;;;;;;;63.83;40.40;;;;;;;;;;5012703;28;20775;-70
2022/12/01 01:13:31;;;;;;;63.97;39.67;;;;;;;;;;5014754;28;20203;-70
2022/12/01 01:16:01;;;;;;;67.27;39.10;;;;;;;;;;5011977;28;20434;-70
2022/12/01 01:18:27;;;;;;;63.37;39.40;;;;;;;;;;5003477;28;20467;-70
2022/12/01 01:20:56;;;;;;;69.20;39.93;;;;;;;;;;5022380;28;20443;-70
2022/12/01 01:23:21;;;;;;;74.10;39.63;;;;;;;;;;5021273;28;20420;-70
2022/12/01 01:25:47;;;;;;;67.93;41.63;;;;;;;;;;5022060;28;20523;-70
2022/12/01 01:28:12;;;;;;;69.33;41.60;;;;;;;;;;5020924;28;20185;-70
2022/12/01 01:30:40;;;;;;;69.53;39.90;;;;;;;;;;5023599;28;20200;-70
2022/12/01 01:33:05;;;;;;;66.70;39.70;;;;;;;;;;5022095;28;20185;-70
2022/12/01 01:35:31;;;;;;;67.97;41.27;;;;;;;;;;5017913;28;20439;-70
2022/12/01 01:37:56;;;;;;;63.37;39.60;;;;;;;;;;5004755;28;20179;-70
2022/12/01 01:40:21;;;;;;;65.57;39.17;;;;;;;;;;5000723;28;20284;-70
2022/12/01 01:42:47;;;;;;;67.13;38.00;;;;;;;;;;5017722;28;20177;-70
2022/12/01 01:45:20;;;;;;;72.57;39.57;;;;;;;;;;5019662;28;20271;-70
2022/12/01 01:47:48;;;;;;;67.13;40.13;;;;;;;;;;5008633;28;20880;-70
2022/12/01 01:50:15;;;;;;;68.60;40.30;;;;;;;;;;5022469;28;20438;-70
2022/12/01 01:52:43;;;;;;;71.60;40.87;;;;;;;;;;5022947;28;20943;-70
2022/12/01 01:55:11;;;;;;;72.30;39.73;;;;;;;;;;5020671;28;20462;-70
2022/12/01 01:57:37;;;;;;;66.47;39.17;;;;;;;;;;5015834;28;20482;-68
2022/12/01 02:00:11;;;;;;;71.37;40.83;;;;;;;;;;5018156;28;20440;-68
2022/12/01 02:02:43;;;;;;;72.80;42.83;;;;;;;;;;5019371;28;20188;-68
2022/12/01 02:05:10;;;;;;;74.37;43.20;;;;;;;;;;5019969;28;20431;-68
2022/12/01 02:07:36;;;;;;;76.70;44.50;;;;;;;;;;5015083;28;20508;-71
2022/12/01 02:10:02;;;;;;;84.27;44.50;;;;;;;;;;5020347;28;20458;-68
2022/12/01 02:12:30;;;;;;;77.03;42.97;;;;;;;;;;5016350;28;20526;-69
2022/12/01 02:14:58;;;;;;;70.80;41.70;;;;;;;;;;5014804;28;20223;-69
2022/12/01 02:17:42;;;;;;;72.73;41.00;;;;;;;;;;5021556;28;20429;-69
2022/12/01 02:20:26;;;;;;;75.47;41.00;;;;;;;;;;5017676;28;20546;-68
2022/12/01 02:23:10;;;;;;;70.70;39.50;;;;;;;;;;5018454;28;20434;-68
2022/12/01 02:25:47;;;;;;;76.53;42.13;;;;;;;;;;5017994;28;20562;-68
2022/12/01 02:28:12;;;;;;;71.43;41.20;;;;;;;;;;5018180;28;20438;-69
2022/12/01 02:30:43;;;;;;;69.43;40.00;;;;;;;;;;5020288;28;20953;-69
2022/12/01 02:33:14;;;;;;;73.40;40.03;;;;;;;;;;5006828;28;20239;-68
2022/12/01 02:35:48;;;;;;;69.23;41.10;;;;;;;;;;5021776;28;20796;-68
2022/12/01 02:38:13;;;;;;;75.27;42.07;;;;;;;;;;5021052;28;20933;-69
2022/12/01 02:40:42;;;;;;;77.17;44.23;;;;;;;;;;5023644;28;20450;-68
2022/12/01 02:43:19;;;;;;;73.13;40.10;;;;;;;;;;5022330;28;20617;-67
2022/12/01 02:45:48;;;;;;;72.93;40.20;;;;;;;;;;5005895;28;20431;-68
2022/12/01 02:48:16;;;;;;;74.50;42.20;;;;;;;;;;5021502;28;20438;-67
2022/12/01 02:50:41;;;;;;;73.63;43.27;;;;;;;;;;5022901;28;20450;-67
2022/12/01 02:53:09;;;;;;;69.77;40.10;;;;;;;;;;5009249;28;20494;-67
2022/12/01 02:55:34;;;;;;;72.20;41.70;;;;;;;;;;5021931;28;20176;-68
2022/12/01 02:57:59;;;;;;;73.80;41.67;;;;;;;;;;5020709;28;20991;-68
2022/12/01 03:00:25;;;;;;;75.30;41.60;;;;;;;;;;5020279;28;20913;-67
2022/12/01 03:02:58;;;;;;;77.20;42.03;;;;;;;;;;5019226;28;20188;-67
2022/12/01 03:05:41;;;;;;;70.40;40.30;;;;;;;;;;5019595;28;20195;-67
2022/12/01 03:08:06;;;;;;;75.17;40.30;;;;;;;;;;5015866;28;20446;-67
2022/12/01 03:10:46;;;;;;;73.70;42.77;;;;;;;;;;5001529;28;20455;-67
2022/12/01 03:13:15;;;;;;;76.10;43.00;;;;;;;;;;5017793;28;20204;-67
2022/12/01 03:15:52;;;;;;;71.30;41.50;;;;;;;;;;5017762;28;20432;-67
2022/12/01 03:18:25;;;;;;;68.30;40.03;;;;;;;;;;5019969;28;20549;-67
2022/12/01 03:21:00;;;;;;;72.57;42.17;;;;;;;;;;5017212;28;20423;-68
2022/12/01 03:23:29;;;;;;;65.50;39.50;;;;;;;;;;5018439;28;20487;-67
2022/12/01 03:25:55;;;;;;;78.30;41.47;;;;;;;;;;5017649;28;20451;-67
2022/12/01 03:28:22;;;;;;;68.17;38.80;;;;;;;;;;5018052;28;20463;-67
2022/12/01 03:30:51;;;;;;;77.03;42.70;;;;;;;;;;5017116;28;20439;-67
2022/12/01 03:33:39;;;;;;;63.77;39.33;;;;;;;;;;5017872;28;20467;-67
2022/12/01 03:36:14;;;;;;;70.77;40.80;;;;;;;;;;5006139;28;20438;-67
2022/12/01 03:38:42;;;;;;;73.80;41.30;;;;;;;;;;5017887;28;20426;-67
2022/12/01 03:41:14;;;;;;;75.77;39.80;;;;;;;;;;5016824;28;20455;-67
2022/12/01 03:43:41;;;;;;;67.90;38.70;;;;;;;;;;5020260;28;20866;-67
2022/12/01 03:46:16;;;;;;;68.37;40.70;;;;;;;;;;5017893;28;20453;-67
2022/12/01 03:51:15;;;;;;;65.77;37.77;;;;;;;;;;5023500;28;20834;-66
2022/12/01 03:53:46;;;;;;;67.40;38.80;;;;;;;;;;5023501;28;20466;-66
2022/12/01 03:56:12;;;;;;;69.53;40.53;;;;;;;;;;5024345;28;20429;-66
2022/12/01 03:58:40;;;;;;;67.40;38.70;;;;;;;;;;5021841;28;20509;-66
2022/12/01 04:01:06;;;;;;;65.63;38.10;;;;;;;;;;5023703;28;20426;-66
2022/12/01 04:03:32;;;;;;;61.67;37.40;;;;;;;;;;5020529;28;20917;-66
2022/12/01 04:05:57;;;;;;;66.33;36.90;;;;;;;;;;5019018;28;20546;-66
2022/12/01 04:08:23;;;;;;;62.43;36.27;;;;;;;;;;5021185;28;20208;-66
2022/12/01 04:10:48;;;;;;;60.53;35.60;;;;;;;;;;5021756;28;20741;-66
2022/12/01 04:13:22;;;;;;;61.17;36.27;;;;;;;;;;5026612;28;21479;-66
2022/12/01 04:15:48;;;;;;;61.60;37.13;;;;;;;;;;5010525;28;20271;-66
2022/12/01 04:18:13;;;;;;;60.73;35.40;;;;;;;;;;5019886;28;20427;-66
2022/12/01 04:20:39;;;;;;;57.50;35.23;;;;;;;;;;5024968;28;20449;-65
2022/12/01 04:23:04;;;;;;;60.27;35.43;;;;;;;;;;5006570;28;20547;-65
2022/12/01 04:25:29;;;;;;;55.27;33.30;;;;;;;;;;5025379;28;20181;-66
2022/12/01 04:27:54;;;;;;;55.23;35.07;;;;;;;;;;5022682;28;20184;-66
2022/12/01 04:30:20;;;;;;;53.33;34.27;;;;;;;;;;5005816;28;20612;-65
2022/12/01 04:32:45;;;;;;;55.87;33.97;;;;;;;;;;5019398;28;20172;-66
2022/12/01 04:35:11;;;;;;;57.77;34.53;;;;;;;;;;5023861;28;20237;-65
2022/12/01 04:37:37;;;;;;;58.97;35.33;;;;;;;;;;5025686;28;20172;-66
2022/12/01 04:40:05;;;;;;;60.47;33.70;;;;;;;;;;5022086;28;20435;-66
2022/12/01 04:42:30;;;;;;;56.10;34.00;;;;;;;;;;5025414;28;20991;-66
2022/12/01 04:44:55;;;;;;;58.70;33.47;;;;;;;;;;5027456;28;20419;-66
2022/12/01 04:47:21;;;;;;;53.33;33.40;;;;;;;;;;5027155;28;20412;-66
2022/12/01 04:49:46;;;;;;;54.97;33.90;;;;;;;;;;5023760;28;20333;-66
2022/12/01 04:52:11;;;;;;;53.40;33.77;;;;;;;;;;5025097;28;20169;-66
2022/12/01 04:54:37;;;;;;;50.00;32.67;;;;;;;;;;5025675;28;20201;-66
2022/12/01 04:57:02;;;;;;;57.70;33.40;;;;;;;;;;5025469;28;20246;-66
2022/12/01 04:59:27;;;;;;;52.97;32.23;;;;;;;;;;5025379;28;20196;-67
2022/12/01 05:01:52;;;;;;;56.80;33.77;;;;;;;;;;5026262;28;20565;-66
2022/12/01 05:04:18;;;;;;;51.53;33.03;;;;;;;;;;5021208;28;20181;-67
2022/12/01 05:06:43;;;;;;;43.73;30.43;;;;;;;;;;5004371;28;20193;-66
2022/12/01 05:09:11;;;;;;;47.20;30.03;;;;;;;;;;5021374;28;20218;-66
2022/12/01 05:11:36;;;;;;;44.70;30.03;;;;;;;;;;5001342;28;20184;-66
2022/12/01 05:14:02;;;;;;;50.90;31.83;;;;;;;;;;5019224;28;20482;-66
2022/12/01 05:16:28;;;;;;;48.90;30.70;;;;;;;;;;5024938;28;20567;-66
2022/12/01 05:21:42;;;;;;;50.33;31.50;;;;;;;;;;5026778;28;20434;-66
2022/12/01 05:24:08;;;;;;;47.63;28.87;;;;;;;;;;5025062;28;20447;-66
2022/12/01 05:26:34;;;;;;;47.33;30.27;;;;;;;;;;5019924;28;20439;-66
2022/12/01 05:28:59;;;;;;;44.57;28.47;;;;;;;;;;5018973;28;20219;-66
2022/12/01 05:31:24;;;;;;;50.07;29.93;;;;;;;;;;5019469;28;20217;-66
2022/12/01 05:33:49;;;;;;;45.67;29.77;;;;;;;;;;5020142;28;20203;-66
2022/12/01 05:36:15;;;;;;;44.77;28.73;;;;;;;;;;5019248;28;20196;-66
2022/12/01 05:38:40;;;;;;;44.20;28.87;;;;;;;;;;5021186;28;20288;-66
2022/12/01 05:41:05;;;;;;;48.67;30.57;;;;;;;;;;5006964;28;20180;-66
2022/12/01 05:43:30;;;;;;;45.13;29.37;;;;;;;;;;5021341;28;20678;-66
2022/12/01 05:45:58;;;;;;;42.00;28.77;;;;;;;;;;5002828;28;20271;-65
2022/12/01 05:48:24;;;;;;;45.57;28.43;;;;;;;;;;5020148;28;20272;-66
2022/12/01 05:50:49;;;;;;;47.00;28.00;;;;;;;;;;5019291;28;20566;-66
2022/12/01 05:53:14;;;;;;;39.60;27.20;;;;;;;;;;5018827;28;20185;-65
2022/12/01 05:55:40;;;;;;;40.97;26.90;;;;;;;;;;5026258;28;20222;-66
2022/12/01 05:58:05;;;;;;;44.90;28.57;;;;;;;;;;5019613;28;20271;-66
2022/12/01 06:00:31;;;;;;;41.90;27.47;;;;;;;;;;5005164;28;20205;-66
2022/12/01 06:02:56;;;;;;;42.80;28.53;;;;;;;;;;5002477;28;20181;-66
2022/12/01 06:05:22;;;;;;;38.63;25.50;;;;;;;;;;5019951;28;20188;-66
2022/12/01 06:07:47;;;;;;;43.47;26.73;;;;;;;;;;5026322;28;20191;-66
2022/12/01 06:10:15;;;;;;;38.33;25.90;;;;;;;;;;5007545;28;20208;-67
2022/12/01 06:12:41;;;;;;;39.03;26.53;;;;;;;;;;5009350;28;20191;-67
2022/12/01 06:15:06;;;;;;;41.53;25.30;;;;;;;;;;5024199;28;20844;-66
2022/12/01 06:17:32;;;;;;;35.57;25.40;;;;;;;;;;5024670;28;20180;-67
2022/12/01 06:19:59;;;;;;;35.40;25.10;;;;;;;;;;5005846;28;20208;-67
2022/12/01 06:22:25;;;;;;;42.37;26.70;;;;;;;;;;5005794;28;20180;-67
2022/12/01 06:24:50;;;;;;;36.73;25.63;;;;;;;;;;5025379;28;20861;-67
2022/12/01 06:27:15;;;;;;;47.07;28.50;;;;;;;;;;5023481;28;20177;-66
2022/12/01 06:29:41;;;;;;;36.70;25.87;;;;;;;;;;5026469;28;20197;-67
2022/12/01 06:32:06;;;;;;;43.13;26.57;;;;;;;;;;5027890;28;20184;-66
2022/12/01 06:34:31;;;;;;;38.97;26.00;;;;;;;;;;5011988;28;20298;-65
2022/12/01 06:36:56;;;;;;;39.67;25.37;;;;;;;;;;5027732;28;20529;-66
2022/12/01 06:39:22;;;;;;;40.07;25.57;;;;;;;;;;5035518;23;20306;-67
2022/12/01 06:41:47;;;;;;;37.80;24.70;;;;;;;;;;5041503;28;20267;-67
2022/12/01 06:44:12;;;;;;;40.63;27.03;;;;;;;;;;5040932;28;20175;-67
2022/12/01 06:46:38;;;;;;;36.67;26.17;;;;;;;;;;5039176;28;20183;-67
2022/12/01 06:49:03;;;;;;;36.30;25.27;;;;;;;;;;5039392;28;20258;-67
2022/12/01 06:51:30;;;;;;;42.47;26.63;;;;;;;;;;5037922;28;20658;-67
2022/12/01 06:53:55;;;;;;;36.77;25.60;;;;;;;;;;5039410;28;20235;-67
2022/12/01 06:56:21;;;;;;;34.80;24.37;;;;;;;;;;5040435;28;20893;-68
2022/12/01 06:58:50;;;;;;;34.60;23.53;;;;;;;;;;5038950;28;20216;-67
2022/12/01 07:01:15;;;;;;;38.33;25.10;;;;;;;;;;5021883;28;20793;-68
2022/12/01 07:03:41;;;;;;;35.63;24.73;;;;;;;;;;5024774;28;20481;-67
2022/12/01 07:06:07;;;;;;;35.07;24.03;;;;;;;;;;5040196;28;20180;-66
2022/12/01 07:08:32;;;;;;;37.37;25.27;;;;;;;;;;5039961;28;20458;-66
2022/12/01 07:10:58;;;;;;;37.43;24.67;;;;;;;;;;5041402;28;20183;-66
2022/12/01 07:13:23;;;;;;;42.13;25.97;;;;;;;;;;5039678;28;20214;-66
2022/12/01 07:15:49;;;;;;;36.63;24.80;;;;;;;;;;5025098;28;20415;-66
2022/12/01 07:18:14;;;;;;;33.40;24.37;;;;;;;;;;5037986;28;20192;-66
2022/12/01 07:20:39;;;;;;;36.50;25.07;;;;;;;;;;5039613;28;20646;-67
2022/12/01 07:23:04;;;;;;;38.13;24.73;;;;;;;;;;5035615;28;20180;-66
2022/12/01 07:25:30;;;;;;;37.33;25.50;;;;;;;;;;5040060;28;20187;-67
2022/12/01 07:27:55;;;;;;;36.47;25.57;;;;;;;;;;5036034;28;20211;-67
2022/12/01 07:30:20;;;;;;;38.00;26.53;;;;;;;;;;5038172;28;20183;-67
2022/12/01 07:32:46;;;;;;;35.10;24.57;;;;;;;;;;5037431;28;20197;-67
2022/12/01 07:35:11;;;;;;;36.67;23.97;;;;;;;;;;5037781;28;20211;-67
2022/12/01 07:37:36;;;;;;;35.90;24.70;;;;;;;;;;5036784;28;20712;-67
2022/12/01 07:40:01;;;;;;;34.20;24.17;;;;;;;;;;5036812;28;20184;-66
2022/12/01 07:42:27;;;;;;;36.07;25.47;;;;;;;;;;5037842;28;20306;-67
2022/12/01 07:44:52;;;;;;;34.93;25.50;;;;;;;;;;5038201;28;20180;-67
2022/12/01 07:47:17;;;;;;;37.83;26.20;;;;;;;;;;5037184;28;20560;-67
2022/12/01 07:49:43;;;;;;;34.13;24.87;;;;;;;;;;5015314;28;20311;-66
2022/12/01 07:52:08;;;;;;;40.93;26.10;;;;;;;;;;5033728;28;20185;-67
2022/12/01 07:54:33;;;;;;;40.23;28.23;;;;;;;;;;5019505;28;20204;-66
2022/12/01 07:56:58;;;;;;;40.00;27.03;;;;;;;;;;5035908;28;20176;-66
2022/12/01 07:59:24;;;;;;;42.80;28.10;;;;;;;;;;5036041;28;20188;-66
2022/12/01 08:01:49;;;;;;;39.20;27.10;;;;;;;;;;5037102;28;20169;-66
2022/12/01 08:04:14;;;;;;;37.67;25.83;;;;;;;;;;5036099;28;20183;-66
2022/12/01 08:06:39;;;;;;;35.73;24.67;;;;;;;;;;5035631;28;20184;-66
2022/12/01 08:09:05;;;;;;;36.10;24.33;;;;;;;;;;5036769;28;20195;-66
2022/12/01 08:11:30;;;;;;;39.40;26.00;;;;;;;;;;5023624;28;20275;-67
2022/12/01 08:13:55;;;;;;;36.20;25.03;;;;;;;;;;5036098;28;20204;-66
2022/12/01 08:16:21;;;;;;;38.40;25.90;;;;;;;;;;5037910;28;20191;-66
2022/12/01 08:18:47;;;;;;;42.33;26.57;;;;;;;;;;5035784;28;20195;-67
2022/12/01 08:21:13;;;;;;;43.60;26.57;;;;;;;;;;5038889;28;20407;-66
2022/12/01 08:23:39;;;;;;;40.90;26.20;;;;;;;;;;5024532;28;20194;-66
2022/12/01 08:26:06;;;;;;;43.13;25.87;;;;;;;;;;5037558;28;20416;-66
2022/12/01 08:28:31;;;;;;;38.83;25.63;;;;;;;;;;5036356;28;20288;-66
2022/12/01 08:30:56;;;;;;;39.00;26.17;;;;;;;;;;5036493;28;20449;-66
2022/12/01 08:33:22;;;;;;;39.33;26.20;;;;;;;;;;5036530;28;20174;-66
2022/12/01 08:35:47;;;;;;;43.47;27.30;;;;;;;;;;5035400;28;20176;-66
2022/12/01 08:38:12;;;;;;;40.53;26.80;;;;;;;;;;5020771;28;20686;-66
2022/12/01 08:40:37;;;;;;;40.50;26.53;;;;;;;;;;5022895;28;20223;-66
2022/12/01 08:43:03;;;;;;;40.70;27.60;;;;;;;;;;5036727;28;20176;-66
2022/12/01 08:45:28;;;;;;;37.50;26.40;;;;;;;;;;5036070;28;20196;-67
2022/12/01 08:47:57;;;;;;;39.93;25.80;;;;;;;;;;5034585;28;20211;-67
2022/12/01 08:50:23;;;;;;;39.10;25.40;;;;;;;;;;5035322;28;20609;-67
2022/12/01 08:52:48;;;;;;;38.77;25.63;;;;;;;;;;5036485;28;20446;-67
2022/12/01 08:55:13;;;;;;;41.80;26.47;;;;;;;;;;5034847;28;20227;-67
2022/12/01 08:57:39;;;;;;;40.33;26.67;;;;;;;;;;5033521;28;20375;-66
2022/12/01 09:00:04;;;;;;;43.70;27.73;;;;;;;;;;5037862;28;20207;-67
2022/12/01 09:02:29;;;;;;;41.07;25.80;;;;;;;;;;5031358;28;20272;-66
2022/12/01 09:04:55;;;;;;;44.90;29.07;;;;;;;;;;5037467;28;20176;-67
2022/12/01 09:07:20;;;;;;;46.90;28.37;;;;;;;;;;5034304;28;20295;-67
2022/12/01 09:09:46;;;;;;;48.10;29.00;;;;;;;;;;5035701;28;20184;-67
2022/12/01 09:12:11;;;;;;;46.97;28.27;;;;;;;;;;5036357;28;20176;-67
2022/12/01 09:14:39;;;;;;;46.33;27.53;;;;;;;;;;5035133;28;20218;-67
2022/12/01 09:17:05;;;;;;;44.33;26.87;;;;;;;;;;5034332;28;20463;-68
2022/12/01 09:19:31;;;;;;;44.67;28.80;;;;;;;;;;5033961;28;20969;-67
2022/12/01 09:21:56;;;;;;;47.60;28.87;;;;;;;;;;5035956;28;20176;-67
2022/12/01 09:24:22;;;;;;;46.47;28.13;;;;;;;;;;5035833;28;20180;-67
2022/12/01 09:26:47;;;;;;;43.57;27.90;;;;;;;;;;5034177;28;20183;-67
2022/12/01 09:29:13;;;;;;;41.03;25.77;;;;;;;;;;5034350;28;20200;-67
2022/12/01 09:31:40;;;;;;;49.83;27.90;;;;;;;;;;5034422;28;20211;-67
2022/12/01 09:34:06;;;;;;;45.70;27.70;;;;;;;;;;5036046;28;21042;-67
2022/12/01 09:36:33;;;;;;;47.60;28.87;;;;;;;;;;5034141;28;20480;-67
2022/12/01 09:38:58;;;;;;;41.87;27.60;;;;;;;;;;5033346;28;20457;-67
2022/12/01 09:41:37;;;;;;;45.43;28.17;;;;;;;;;;5035282;28;20410;-67
2022/12/01 09:44:19;;;;;;;51.27;29.90;;;;;;;;;;5034125;28;20180;-67
2022/12/01 09:46:44;;;;;;;47.60;29.00;;;;;;;;;;5033974;28;20415;-67
2022/12/01 09:49:14;;;;;;;46.40;28.13;;;;;;;;;;5034507;28;20437;-67
2022/12/01 09:51:39;;;;;;;44.87;28.00;;;;;;;;;;5025216;28;20266;-67
2022/12/01 09:54:05;;;;;;;43.80;28.03;;;;;;;;;;5034965;28;20545;-67
2022/12/01 09:56:41;;;;;;;45.10;26.77;;;;;;;;;;5035963;28;20658;-67
2022/12/01 09:59:12;;;;;;;42.07;28.80;;;;;;;;;;5034455;28;20222;-67
2022/12/01 10:01:40;;;;;;;40.60;27.63;;;;;;;;;;5034971;28;20427;-67
2022/12/01 10:04:28;;;;;;;46.67;30.00;;;;;;;;;;5036379;28;20411;-67
2022/12/01 10:07:05;;;;;;;41.97;25.43;;;;;;;;;;5027542;28;20567;-67
2022/12/01 10:09:52;;;;;;;43.93;26.97;;;;;;;;;;5038494;28;21018;-67
2022/12/01 10:12:19;;;;;;;38.30;25.80;;;;;;;;;;5038723;28;20429;-67
2022/12/01 10:14:46;;;;;;;41.07;27.80;;;;;;;;;;5038629;28;20875;-67
2022/12/01 10:17:15;;;;;;;42.23;26.50;;;;;;;;;;5039718;28;20943;-68
2022/12/01 10:19:53;;;;;;;39.27;26.47;;;;;;;;;;5037655;28;20406;-67
2022/12/01 10:22:22;;;;;;;41.43;26.90;;;;;;;;;;5038233;28;20410;-67
2022/12/01 10:24:47;;;;;;;40.40;27.20;;;;;;;;;;5039204;28;20924;-67
2022/12/01 10:27:31;;;;;;;42.43;27.40;;;;;;;;;;5038347;28;20415;-67
2022/12/01 10:30:06;;;;;;;43.60;27.50;;;;;;;;;;5038332;28;20176;-67
2022/12/01 10:32:41;;;;;;;40.63;26.70;;;;;;;;;;5040429;28;20413;-67
2022/12/01 10:35:09;;;;;;;41.13;26.17;;;;;;;;;;5037339;28;20497;-67
2022/12/01 10:37:35;;;;;;;46.53;27.60;;;;;;;;;;5037438;28;20427;-67
2022/12/01 10:40:01;;;;;;;42.23;26.73;;;;;;;;;;5023898;28;20501;-68
2022/12/01 10:42:26;;;;;;;44.13;28.37;;;;;;;;;;5038804;28;20171;-67
2022/12/01 10:44:53;;;;;;;43.33;28.87;;;;;;;;;;5038583;28;20417;-68
2022/12/01 10:47:20;;;;;;;40.77;27.60;;;;;;;;;;5037985;28;20207;-67
2022/12/01 10:49:46;;;;;;;44.57;28.30;;;;;;;;;;5038046;28;20549;-68
2022/12/01 10:52:31;;;;;;;45.00;28.10;;;;;;;;;;5038402;28;20497;-67
2022/12/01 10:54:57;;;;;;;44.00;28.50;;;;;;;;;;5038949;28;20207;-67
2022/12/01 10:57:22;;;;;;;43.57;28.30;;;;;;;;;;5037845;28;20412;-67
2022/12/01 10:59:47;;;;;;;40.33;26.60;;;;;;;;;;5036014;28;20183;-67
2022/12/01 11:02:14;;;;;;;41.70;26.93;;;;;;;;;;5038541;28;20173;-67
2022/12/01 11:04:45;;;;;;;41.60;27.37;;;;;;;;;;5035184;28;20318;-67
2022/12/01 11:07:21;;;;;;;41.10;27.90;;;;;;;;;;5035739;28;20808;-67
2022/12/01 11:09:53;;;;;;;40.53;28.20;;;;;;;;;;5036645;28;20418;-68
2022/12/01 11:12:19;;;;;;;42.17;28.13;;;;;;;;;;5036861;28;20415;-67
2022/12/01 11:14:49;;;;;;;40.00;26.70;;;;;;;;;;5035372;28;20485;-68
2022/12/01 11:17:25;;;;;;;39.90;27.70;;;;;;;;;;5037015;28;20173;-67
2022/12/01 11:19:50;;;;;;;40.93;28.23;;;;;;;;;;5037941;28;20901;-68
2022/12/01 11:22:25;;;;;;;38.70;29.07;;;;;;;;;;5037554;28;20414;-67
2022/12/01 11:24:53;;;;;;;44.53;29.00;;;;;;;;;;5037409;28;20186;-68
2022/12/01 11:27:20;;;;;;;42.33;29.00;;;;;;;;;;5036311;28;20426;-68
2022/12/01 11:29:47;;;;;;;38.97;26.57;;;;;;;;;;5024507;28;20525;-68
2022/12/01 11:32:20;;;;;;;40.40;28.27;;;;;;;;;;5037149;28;20451;-67
2022/12/01 11:34:51;;;;;;;41.80;27.57;;;;;;;;;;5024090;28;20545;-68
2022/12/01 11:37:17;;;;;;;42.43;28.30;;;;;;;;;;5037192;28;20415;-68
2022/12/01 11:39:43;;;;;;;41.87;29.00;;;;;;;;;;5042241;28;20443;-68
2022/12/01 11:42:28;;;;;;;45.20;32.40;;;;;;;;;;5040408;28;20411;-68
2022/12/01 11:45:04;;;;;;;48.00;32.73;;;;;;;;;;5041275;28;20411;-68
2022/12/01 11:47:30;;;;;;;99.80;59.07;;;;;;;;;;5040532;28;20402;-68
2022/12/01 11:50:00;;;;;;;127.73;72.50;;;;;;;;;;5040048;28;20830;-68
2022/12/01 11:52:29;;;;;;;147.57;87.67;;;;;;;;;;5037303;28;20576;-67
2022/12/01 11:54:59;;;;;;;72.50;49.37;;;;;;;;;;5040981;28;20477;-68
2022/12/01 11:57:25;;;;;;;53.50;36.37;;;;;;;;;;5040584;28;20418;-68
2022/12/01 11:59:50;;;;;;;53.80;36.53;;;;;;;;;;5035594;28;20418;-67
2022/12/01 12:02:19;;;;;;;57.80;36.90;;;;;;;;;;5039505;28;20437;-68
2022/12/01 12:05:03;;;;;;;58.23;38.73;;;;;;;;;;5040381;28;20191;-68
2022/12/01 12:07:37;;;;;;;60.70;40.90;;;;;;;;;;5040080;28;20414;-69
2022/12/01 12:10:09;;;;;;;71.33;41.40;;;;;;;;;;5039335;28;20467;-69
2022/12/01 12:12:35;;;;;;;67.00;40.30;;;;;;;;;;5039197;28;20415;-68
2022/12/01 12:15:00;;;;;;;61.00;40.37;;;;;;;;;;5038201;28;20461;-69
2022/12/01 12:17:40;;;;;;;58.00;37.47;;;;;;;;;;5037183;28;20643;-68
2022/12/01 12:20:26;;;;;;;60.40;38.07;;;;;;;;;;5039325;28;20211;-69
2022/12/01 12:23:10;;;;;;;58.63;36.67;;;;;;;;;;5040475;28;20513;-68
2022/12/01 12:25:44;;;;;;;69.40;37.83;;;;;;;;;;5038849;28;20472;-69
2022/12/01 12:28:22;;;;;;;56.17;37.00;;;;;;;;;;5038292;28;20929;-69
2022/12/01 12:30:52;;;;;;;60.40;37.90;;;;;;;;;;5039618;28;20410;-69
2022/12/01 12:33:38;;;;;;;58.90;39.73;;;;;;;;;;5022649;28;20453;-69
2022/12/01 12:36:11;;;;;;;66.97;39.93;;;;;;;;;;5037031;28;20909;-68
2022/12/01 12:38:47;;;;;;;63.87;40.80;;;;;;;;;;5037959;28;20960;-69
2022/12/01 12:41:34;;;;;;;64.00;41.33;;;;;;;;;;5068216;23;20498;-66
2022/12/01 12:44:02;;;;;;;57.27;37.23;;;;;;;;;;5027709;28;20415;-66
2022/12/01 12:46:36;;;;;;;63.57;40.93;;;;;;;;;;5029618;28;20423;-66
2022/12/01 12:49:01;;;;;;;67.60;40.53;;;;;;;;;;5028602;28;20471;-66
2022/12/01 12:51:26;;;;;;;56.93;38.40;;;;;;;;;;5027627;28;20411;-66
2022/12/01 12:53:56;;;;;;;61.07;40.37;;;;;;;;;;5028010;28;20679;-66
2022/12/01 12:56:25;;;;;;;63.47;39.37;;;;;;;;;;5027333;28;20246;-66
2022/12/01 12:58:50;;;;;;;63.33;40.20;;;;;;;;;;5010478;28;20431;-66
2022/12/01 13:01:18;;;;;;;67.80;39.83;;;;;;;;;;5011192;28;20415;-65
2022/12/01 13:03:54;;;;;;;65.67;41.20;;;;;;;;;;5027867;28;20184;-66
2022/12/01 13:06:24;;;;;;;59.50;39.47;;;;;;;;;;5027421;28;20423;-66
2022/12/01 13:08:51;;;;;;;63.10;40.87;;;;;;;;;;5028233;28;20953;-66
2022/12/01 13:11:28;;;;;;;62.70;42.33;;;;;;;;;;5010176;28;20431;-66
2022/12/01 13:14:14;;;;;;;56.50;38.60;;;;;;;;;;5010928;28;20466;-66
2022/12/01 13:16:41;;;;;;;55.03;36.10;;;;;;;;;;5027636;28;20438;-66
2022/12/01 13:19:16;;;;;;;52.43;35.40;;;;;;;;;;5028645;28;20430;-66
2022/12/01 13:21:45;;;;;;;52.83;35.40;;;;;;;;;;5010323;28;20957;-66
2022/12/01 13:24:17;;;;;;;51.90;35.83;;;;;;;;;;5027030;28;20902;-66
2022/12/01 13:26:44;;;;;;;53.33;35.23;;;;;;;;;;5027206;28;20415;-66
2022/12/01 13:29:12;;;;;;;54.33;35.40;;;;;;;;;;5026706;28;20824;-66
2022/12/01 13:31:48;;;;;;;53.03;34.53;;;;;;;;;;5029094;28;20918;-66
2022/12/01 13:34:25;;;;;;;56.83;36.57;;;;;;;;;;5027027;28;20875;-66
2022/12/01 13:36:52;;;;;;;54.00;37.10;;;;;;;;;;5025763;28;20473;-66
2022/12/01 13:39:19;;;;;;;55.43;35.97;;;;;;;;;;5008029;28;20439;-67
2022/12/01 13:41:45;;;;;;;49.20;33.77;;;;;;;;;;5009398;28;21373;-67
2022/12/01 13:44:29;;;;;;;54.03;37.00;;;;;;;;;;5026258;28;20473;-66
2022/12/01 13:47:09;;;;;;;50.87;33.80;;;;;;;;;;5026951;28;20469;-66
2022/12/01 13:49:45;;;;;;;61.73;38.70;;;;;;;;;;5006821;28;20449;-66
2022/12/01 13:52:20;;;;;;;60.53;38.43;;;;;;;;;;5028084;28;20956;-66
2022/12/01 13:55:19;;;;;;;56.93;37.80;;;;;;;;;;5026576;28;20980;-67
2022/12/01 13:57:48;;;;;;;54.47;38.27;;;;;;;;;;5027029;28;20412;-67
2022/12/01 14:00:27;;;;;;;47.97;35.00;;;;;;;;;;5026511;28;20504;-66
2022/12/01 14:03:11;;;;;;;54.40;36.50;;;;;;;;;;5026817;28;20953;-66
2022/12/01 14:05:39;;;;;;;51.40;34.80;;;;;;;;;;5026220;28;20929;-66
2022/12/01 14:08:22;;;;;;;53.90;37.53;;;;;;;;;;5010594;28;20427;-66
2022/12/01 14:10:53;;;;;;;53.23;37.67;;;;;;;;;;5024536;28;20451;-66
2022/12/01 14:13:20;;;;;;;51.33;36.50;;;;;;;;;;5025895;28;20441;-67
2022/12/01 14:15:51;;;;;;;56.17;36.50;;;;;;;;;;5024137;28;20438;-66
2022/12/01 14:18:16;;;;;;;54.73;37.33;;;;;;;;;;5024040;28;20415;-66
2022/12/01 14:20:46;;;;;;;56.57;36.00;;;;;;;;;;5028535;28;20812;-66
2022/12/01 14:23:17;;;;;;;52.33;35.97;;;;;;;;;;5027110;28;20215;-67
2022/12/01 14:25:55;;;;;;;53.57;35.87;;;;;;;;;;5002932;28;20948;-67
2022/12/01 14:28:40;;;;;;;58.93;40.97;;;;;;;;;;5005701;28;20416;-66